createdAt,value
2022-08-27T00:01:51.651Z,1.08
2022-08-27T00:12:13.671Z,1.20
2022-08-27T00:22:35.442Z,1.10
2022-08-27T00:32:57.151Z,0.93
2022-08-27T00:43:28.036Z,0.90
2022-08-27T00:53:51.701Z,0.82
2022-08-27T01:04:13.251Z,1.20
2022-08-27T01:14:35.591Z,1.13
2022-08-27T01:25:01.622Z,1.20
2022-08-27T01:35:23.972Z,1.55
2022-08-27T01:45:49.263Z,1.10
2022-08-27T01:56:11.529Z,1.15
2022-08-27T02:06:33.620Z,1.30
2022-08-27T02:16:56.174Z,1.27
2022-08-27T02:27:18.446Z,1.08
2022-08-27T02:37:40.212Z,0.98
2022-08-27T02:48:01.890Z,0.90
2022-08-27T02:58:23.510Z,1.20
2022-08-27T03:08:53.066Z,0.95
2022-08-27T03:19:18.664Z,1.10
2022-08-27T03:29:45.232Z,1.13
2022-08-27T03:40:08.153Z,1.17
2022-08-27T03:50:29.803Z,1.65
2022-08-27T04:00:51.370Z,1.00
2022-08-27T04:11:12.937Z,1.23
2022-08-27T04:21:35.721Z,1.13
2022-08-27T04:31:57.807Z,1.20
2022-08-27T04:42:20.019Z,1.35
2022-08-27T04:52:41.619Z,1.15
2022-08-27T05:03:03.222Z,1.17
2022-08-27T05:13:24.838Z,1.48
2022-08-27T05:23:46.553Z,1.23
2022-08-27T05:34:10.451Z,1.40
2022-08-27T05:44:41.129Z,1.27
2022-08-27T05:55:03.146Z,1.25
2022-08-27T06:05:24.750Z,1.35
2022-08-27T06:15:46.382Z,1.52
2022-08-27T06:26:13.821Z,1.25
2022-08-27T06:36:41.540Z,0.95
2022-08-27T06:47:03.878Z,1.25
2022-08-27T06:57:25.497Z,1.50
2022-08-27T07:07:48.859Z,1.83
2022-08-27T07:18:11.180Z,1.30
2022-08-27T07:28:34.147Z,1.27
2022-08-27T07:39:00.673Z,1.50
2022-08-27T07:49:23.621Z,1.35
2022-08-27T07:59:45.242Z,1.70
2022-08-27T08:10:09.311Z,1.67
2022-08-27T08:20:56.590Z,1.48
2022-08-27T08:31:13.454Z,1.70
2022-08-27T08:41:53.816Z,1.45
2022-08-27T09:02:55.701Z,1.53
2022-08-27T09:13:25.217Z,1.40
2022-08-27T09:24:08.215Z,1.52
2022-08-27T09:34:41.424Z,1.63
2022-08-27T09:45:08.670Z,1.48
2022-08-27T10:05:59.114Z,1.35
2022-08-27T10:16:51.050Z,1.33
2022-08-27T10:27:19.730Z,1.45
2022-08-27T10:37:56.543Z,1.45
2022-08-27T10:48:25.659Z,1.30
2022-08-27T10:58:58.124Z,1.10
2022-08-27T11:09:26.855Z,1.30
2022-08-27T11:20:04.719Z,1.08
2022-08-27T11:30:38.534Z,1.20
2022-08-27T11:41:44.875Z,1.30
2022-08-27T11:52:09.177Z,1.52
2022-08-27T12:02:30.818Z,1.23
2022-08-27T12:13:17.054Z,1.38
2022-08-27T12:24:09.049Z,1.20
2022-08-27T12:34:41.640Z,1.13
2022-08-27T12:45:05.291Z,1.27
2022-08-27T12:55:45.922Z,1.20
2022-08-27T13:06:21.141Z,1.45
2022-08-27T13:16:51.584Z,0.88
2022-08-27T13:37:47.926Z,1.05
2022-08-27T13:48:12.581Z,1.10
2022-08-27T13:58:35.801Z,1.05
2022-08-27T14:08:57.633Z,0.85
2022-08-27T14:19:33.263Z,1.10
2022-08-27T14:29:58.493Z,1.08
2022-08-27T14:40:20.638Z,1.08
2022-08-27T14:50:42.592Z,0.90
2022-08-27T15:01:04.942Z,1.20
2022-08-27T15:11:33.876Z,1.17
2022-08-27T15:22:10.110Z,1.00
2022-08-27T15:32:36.934Z,1.15
2022-08-27T15:43:02.296Z,1.40
2022-08-27T15:53:25.628Z,0.90
2022-08-27T16:03:47.583Z,1.40
2022-08-27T16:14:10.668Z,1.52
2022-08-27T16:24:32.327Z,2.42
2022-08-27T16:34:55.825Z,2.28
2022-08-27T16:45:22.626Z,2.13
2022-08-27T16:55:47.403Z,2.50
2022-08-27T17:06:10.593Z,2.47
2022-08-27T17:16:34.375Z,2.60
2022-08-27T17:26:55.941Z,3.17
2022-08-27T17:37:18.867Z,3.80
2022-08-27T17:47:40.594Z,2.80
2022-08-27T17:58:02.204Z,2.83
2022-08-27T18:08:23.747Z,2.90
2022-08-27T18:18:47.619Z,3.25
2022-08-27T18:29:10.472Z,3.60
2022-08-27T18:39:33.141Z,4.03
2022-08-27T18:49:56.134Z,4.07
2022-08-27T19:00:19.205Z,3.67
2022-08-27T19:10:40.855Z,3.53
2022-08-27T19:21:02.671Z,3.67
2022-08-27T19:31:24.513Z,3.53
2022-08-27T19:41:46.155Z,3.70
2022-08-27T19:52:08.754Z,3.42
2022-08-27T20:02:30.443Z,3.80
2022-08-27T20:12:52.079Z,3.63
2022-08-27T20:23:13.902Z,3.88
2022-08-27T20:33:35.501Z,3.60
2022-08-27T20:43:57.225Z,3.58
2022-08-27T20:54:18.794Z,3.60
2022-08-27T21:04:46.465Z,3.60
2022-08-27T21:15:09.188Z,2.78
2022-08-27T21:25:30.794Z,3.13
2022-08-27T21:35:52.652Z,3.38
2022-08-27T21:46:14.297Z,3.13
2022-08-27T21:56:35.884Z,3.00
2022-08-27T22:06:57.729Z,3.47
2022-08-27T22:17:19.253Z,3.05
2022-08-27T22:27:40.847Z,3.03
2022-08-27T22:38:02.558Z,2.88
2022-08-27T22:48:24.976Z,2.65
2022-08-27T22:58:46.539Z,3.17
2022-08-27T23:09:08.051Z,2.85
2022-08-27T23:19:30.886Z,3.13
2022-08-27T23:29:52.966Z,2.92
2022-08-27T23:40:15.120Z,3.53
2022-08-27T23:50:37.884Z,3.53
